Time;durP1;ratioP1;P1;durP2;ratioP2;P2;SDS_P1;SDS_P2;PMS_P1;PMS_P2;Temp;Humidity;BMP_temperature;BMP_pressure;BME280_temperature;BME280_humidity;BME280_pressure;Samples;Min_cycle;Max_cycle;Signal;HPM_P1;HPM_P2
2022/06/26 00:01:33;;;;;;;1.85;1.42;;;22.30;99.90;;;;;;5021282;28;20037;-85
2022/06/26 00:03:59;;;;;;;4.15;2.00;;;22.30;99.90;;;;;;5028678;28;20435;-82
2022/06/26 00:06:24;;;;;;;3.13;1.40;;;22.30;99.90;;;;;;5031831;28;20120;-84
2022/06/26 00:08:50;;;;;;;8.57;3.30;;;22.30;99.90;;;;;;5027862;28;20345;-84
2022/06/26 00:11:16;;;;;;;5.78;2.30;;;22.30;99.90;;;;;;5030453;28;20382;-85
2022/06/26 00:13:42;;;;;;;3.75;1.77;;;22.30;99.90;;;;;;5025640;28;20026;-84
2022/06/26 00:16:07;;;;;;;3.38;1.92;;;22.20;99.90;;;;;;5025967;28;20029;-85
2022/06/26 00:18:33;;;;;;;2.97;1.88;;;22.10;99.90;;;;;;5031584;28;20112;-83
2022/06/26 00:20:59;;;;;;;2.15;1.65;;;21.90;99.90;;;;;;5015605;28;20117;-83
2022/06/26 00:23:25;;;;;;;9.60;1.50;;;21.70;99.90;;;;;;5011942;28;20040;-83
2022/06/26 00:25:51;;;;;;;2.92;1.30;;;21.40;99.90;;;;;;5033642;28;20034;-84
2022/06/26 00:28:18;;;;;;;1.55;1.42;;;21.30;99.90;;;;;;5035852;28;20033;-82
2022/06/26 00:30:43;;;;;;;5.22;1.42;;;21.20;99.90;;;;;;5033376;28;20061;-83
2022/06/26 00:33:09;;;;;;;1.33;1.20;;;21.10;99.90;;;;;;5035859;28;20036;-83
2022/06/26 00:35:35;;;;;;;2.22;1.00;;;21.00;99.90;;;;;;5035215;28;20491;-87
2022/06/26 00:38:00;;;;;;;4.35;1.20;;;20.90;99.90;;;;;;5036568;28;20025;-82
2022/06/26 00:40:26;;;;;;;2.05;1.00;;;20.90;99.90;;;;;;5036743;28;20141;-83
2022/06/26 00:42:52;;;;;;;3.28;0.90;;;20.90;99.90;;;;;;5035205;28;20025;-82
2022/06/26 00:45:17;;;;;;;0.82;0.75;;;20.90;99.90;;;;;;5035701;28;20080;-83
2022/06/26 00:47:45;;;;;;;1.38;0.77;;;20.80;99.90;;;;;;5036112;28;20026;-83
2022/06/26 00:50:12;;;;;;;0.70;0.70;;;20.80;99.90;;;;;;5036591;28;20442;-83
2022/06/26 00:52:39;;;;;;;1.35;0.60;;;20.80;99.90;;;;;;5034917;28;20025;-82
2022/06/26 00:55:05;;;;;;;1.20;0.52;;;20.80;99.90;;;;;;5036487;28;20026;-85
2022/06/26 00:57:33;;;;;;;2.22;0.65;;;20.80;99.90;;;;;;5035235;28;20025;-90
2022/06/26 00:59:59;;;;;;;3.30;0.60;;;20.80;99.90;;;;;;5034972;28;20071;-84
2022/06/26 01:02:24;;;;;;;2.40;0.57;;;20.80;99.90;;;;;;5035130;28;20052;-86
2022/06/26 01:04:50;;;;;;;0.60;0.60;;;20.80;99.90;;;;;;5035534;28;20112;-84
2022/06/26 01:07:16;;;;;;;1.20;0.65;;;20.80;99.90;;;;;;5018874;28;20466;-84
2022/06/26 01:09:41;;;;;;;3.22;0.50;;;20.80;99.90;;;;;;5008000;28;20482;-85
2022/06/26 01:12:08;;;;;;;1.40;0.70;;;20.80;99.90;;;;;;5035150;28;20076;-84
2022/06/26 01:14:33;;;;;;;1.25;0.60;;;20.80;99.90;;;;;;5034333;28;20029;-94
2022/06/26 01:16:59;;;;;;;0.70;0.60;;;20.80;99.90;;;;;;5036130;28;20032;-85
2022/06/26 01:19:26;;;;;;;2.75;0.60;;;20.70;99.90;;;;;;5035913;28;20022;-84
2022/06/26 01:21:51;;;;;;;1.58;0.98;;;20.70;99.90;;;;;;5035341;28;20113;-84
2022/06/26 01:24:17;;;;;;;1.52;0.70;;;20.70;99.90;;;;;;5020190;28;20045;-84
2022/06/26 01:26:43;;;;;;;0.73;0.73;;;20.70;99.90;;;;;;5031593;28;20450;-85
2022/06/26 01:29:09;;;;;;;1.02;0.70;;;20.60;99.90;;;;;;5016097;28;20030;-83
2022/06/26 01:31:34;;;;;;;2.20;0.68;;;20.60;99.90;;;;;;5007883;28;20025;-89
2022/06/26 01:34:05;;;;;;;0.70;0.60;;;20.60;99.90;;;;;;5034038;28;20489;-83
2022/06/26 01:36:31;;;;;;;1.08;0.60;;;20.60;99.90;;;;;;5034510;28;20030;-87
2022/06/26 01:38:56;;;;;;;2.03;0.77;;;20.50;99.90;;;;;;5034454;28;20029;-84
2022/06/26 01:41:22;;;;;;;1.20;0.50;;;20.50;99.90;;;;;;5034501;28;20029;-83
2022/06/26 01:43:48;;;;;;;0.85;0.50;;;20.50;99.90;;;;;;5033763;28;20066;-83
2022/06/26 01:46:14;;;;;;;1.25;0.47;;;20.40;99.90;;;;;;5019281;28;20064;-83
2022/06/26 01:48:40;;;;;;;1.25;0.40;;;20.50;99.90;;;;;;5015368;28;20048;-83
2022/06/26 01:51:06;;;;;;;1.33;0.50;;;20.40;99.90;;;;;;5015668;28;20086;-83
2022/06/26 01:53:32;;;;;;;0.47;0.43;;;20.40;99.90;;;;;;4998081;28;20129;-88
2022/06/26 01:55:58;;;;;;;0.65;0.60;;;20.40;99.90;;;;;;5015147;28;20029;-83
2022/06/26 01:58:24;;;;;;;1.33;0.40;;;20.40;99.90;;;;;;5014099;28;20044;-83
2022/06/26 02:00:50;;;;;;;1.98;0.52;;;20.30;99.90;;;;;;5033849;28;20021;-82
2022/06/26 02:03:17;;;;;;;1.05;0.52;;;20.30;99.90;;;;;;5034061;28;20029;-83
2022/06/26 02:05:43;;;;;;;0.70;0.50;;;20.30;99.90;;;;;;5023869;28;20022;-84
2022/06/26 02:08:09;;;;;;;0.95;0.45;;;20.30;99.90;;;;;;4998154;28;20034;-83
2022/06/26 02:16:08;;;;;;;1.17;0.40;;;20.30;99.90;;;;;;5015131;28;20033;-82
2022/06/26 02:18:35;;;;;;;0.95;0.30;;;20.30;99.90;;;;;;5013634;28;20113;-90
2022/06/26 02:21:01;;;;;;;0.73;0.47;;;20.20;99.90;;;;;;5013766;28;20068;-83
2022/06/26 02:23:27;;;;;;;1.52;0.70;;;20.20;99.90;;;;;;5023031;28;20032;-82
2022/06/26 02:25:53;;;;;;;0.60;0.38;;;20.10;99.90;;;;;;5034160;28;20045;-83
2022/06/26 02:28:19;;;;;;;0.68;0.50;;;20.00;99.90;;;;;;5017131;28;20044;-82
2022/06/26 02:30:46;;;;;;;0.60;0.40;;;20.00;99.90;;;;;;5016725;28;20026;-83
2022/06/26 02:33:11;;;;;;;1.52;0.65;;;20.10;99.90;;;;;;5017147;28;20112;-81
2022/06/26 02:35:37;;;;;;;0.38;0.30;;;20.10;99.90;;;;;;5034068;28;20064;-83
2022/06/26 02:38:03;;;;;;;3.75;0.50;;;20.10;99.90;;;;;;5016980;28;20032;-83
2022/06/26 02:40:31;;;;;;;1.88;0.40;;;20.10;99.90;;;;;;5033088;28;20462;-83
2022/06/26 02:42:57;;;;;;;1.73;0.50;;;20.10;99.90;;;;;;5034063;28;20021;-83
2022/06/26 02:45:23;;;;;;;0.77;0.47;;;20.10;99.90;;;;;;5033673;28;20119;-83
2022/06/26 02:47:49;;;;;;;1.17;0.80;;;20.00;99.90;;;;;;5033000;28;20033;-83
2022/06/26 02:50:15;;;;;;;0.95;0.70;;;20.10;99.90;;;;;;5034380;28;20032;-83
2022/06/26 02:52:42;;;;;;;1.70;0.80;;;20.10;99.90;;;;;;5030626;28;20040;-84
2022/06/26 02:55:09;;;;;;;2.75;0.80;;;20.10;99.90;;;;;;5013477;28;20033;-83
2022/06/26 02:57:35;;;;;;;3.03;0.68;;;20.10;99.90;;;;;;5022344;28;20359;-88
2022/06/26 03:00:01;;;;;;;0.77;0.57;;;20.10;99.90;;;;;;5032823;28;20033;-83
2022/06/26 03:02:27;;;;;;;0.70;0.65;;;20.10;99.90;;;;;;5032898;28;20022;-83
2022/06/26 03:04:53;;;;;;;2.20;1.17;;;20.10;99.90;;;;;;5031507;28;20461;-83
2022/06/26 03:07:19;;;;;;;0.98;0.65;;;20.10;99.90;;;;;;5016575;28;20536;-84
2022/06/26 03:09:45;;;;;;;0.95;0.90;;;20.10;99.90;;;;;;5029340;28;20049;-83
2022/06/26 03:12:11;;;;;;;1.70;0.70;;;20.10;99.90;;;;;;5029876;28;20033;-83
2022/06/26 03:14:37;;;;;;;1.33;0.55;;;20.10;99.90;;;;;;5029498;28;20395;-83
2022/06/26 03:17:03;;;;;;;0.63;0.55;;;20.00;99.90;;;;;;5014256;28;20026;-82
2022/06/26 03:19:29;;;;;;;0.47;0.40;;;20.00;99.90;;;;;;5014229;28;20034;-82
2022/06/26 03:21:54;;;;;;;1.70;0.70;;;20.00;99.90;;;;;;5029325;28;20840;-83
2022/06/26 03:24:20;;;;;;;0.70;0.52;;;20.00;99.90;;;;;;5029387;28;20038;-83
2022/06/26 03:26:47;;;;;;;0.75;0.60;;;20.00;99.90;;;;;;5013577;28;20030;-83
2022/06/26 03:29:13;;;;;;;1.13;0.57;;;20.00;99.90;;;;;;5013144;28;20049;-83
2022/06/26 03:31:39;;;;;;;1.55;0.45;;;20.00;99.90;;;;;;5029066;28;20943;-84
2022/06/26 03:34:05;;;;;;;0.60;0.52;;;20.00;99.90;;;;;;5013132;28;20097;-83
2022/06/26 03:36:32;;;;;;;1.67;0.50;;;20.00;99.90;;;;;;5015533;28;20117;-84
2022/06/26 03:38:57;;;;;;;1.00;0.70;;;20.00;99.90;;;;;;5012650;28;20068;-84
2022/06/26 03:41:23;;;;;;;0.73;0.60;;;19.90;99.90;;;;;;5012883;28;20053;-81
2022/06/26 03:43:49;;;;;;;0.60;0.60;;;19.90;99.90;;;;;;5012667;28;20041;-82
2022/06/26 03:46:15;;;;;;;0.70;0.60;;;19.80;99.90;;;;;;5012986;28;20030;-82
2022/06/26 03:48:41;;;;;;;1.52;0.57;;;19.80;99.90;;;;;;5012628;28;20079;-83
2022/06/26 03:51:08;;;;;;;0.85;0.50;;;19.70;99.90;;;;;;5015549;28;20033;-82
2022/06/26 03:53:34;;;;;;;1.42;0.60;;;19.70;99.90;;;;;;5022466;28;20026;-90
2022/06/26 03:56:00;;;;;;;2.53;0.90;;;19.70;99.90;;;;;;5012970;28;20052;-83
2022/06/26 03:58:26;;;;;;;1.65;0.70;;;19.60;99.90;;;;;;5024564;28;20022;-84
2022/06/26 04:00:52;;;;;;;2.05;0.52;;;19.70;99.90;;;;;;5017403;28;20538;-84
2022/06/26 04:03:19;;;;;;;2.40;0.60;;;19.60;99.90;;;;;;5019666;28;20036;-82
2022/06/26 04:05:44;;;;;;;0.95;0.70;;;19.60;99.90;;;;;;5019128;28;20474;-84
2022/06/26 04:08:10;;;;;;;1.65;0.65;;;19.60;99.90;;;;;;5036202;28;20030;-83
2022/06/26 04:10:36;;;;;;;0.80;0.68;;;19.60;99.90;;;;;;5035025;28;20111;-86
2022/06/26 04:13:04;;;;;;;1.52;0.90;;;19.70;99.90;;;;;;5037339;28;20100;-84
2022/06/26 04:15:32;;;;;;;1.63;0.70;;;19.70;99.90;;;;;;5036031;28;20497;-84
2022/06/26 04:17:58;;;;;;;1.05;0.90;;;19.70;99.90;;;;;;5035574;28;20061;-84
2022/06/26 04:20:25;;;;;;;1.13;0.57;;;19.70;99.90;;;;;;5036431;28;20026;-84
2022/06/26 04:22:57;;;;;;;1.35;0.70;;;19.70;99.90;;;;;;5019932;28;20025;-84
2022/06/26 04:25:23;;;;;;;0.80;0.80;;;19.70;99.90;;;;;;5036955;28;20029;-82
2022/06/26 04:27:49;;;;;;;1.17;0.90;;;19.70;99.90;;;;;;5035541;28;20679;-84
2022/06/26 04:30:15;;;;;;;1.02;0.85;;;19.60;99.90;;;;;;5035606;28;20025;-84
2022/06/26 04:32:41;;;;;;;1.80;1.00;;;19.60;99.90;;;;;;5036783;28;20030;-84
2022/06/26 04:35:08;;;;;;;2.15;0.55;;;19.60;99.90;;;;;;5036007;28;20025;-84
2022/06/26 04:37:34;;;;;;;1.00;0.75;;;19.50;99.90;;;;;;5035487;28;20378;-90
2022/06/26 04:40:00;;;;;;;1.30;0.80;;;19.50;99.90;;;;;;5019195;28;20040;-83
2022/06/26 04:42:25;;;;;;;0.82;0.63;;;19.50;99.90;;;;;;5018720;28;20021;-85
2022/06/26 04:44:51;;;;;;;1.98;0.63;;;19.60;99.90;;;;;;5036029;28;20029;-85
2022/06/26 04:47:16;;;;;;;1.70;0.80;;;19.60;99.90;;;;;;5035315;28;20061;-86
2022/06/26 04:49:42;;;;;;;1.65;0.70;;;19.60;99.90;;;;;;5036332;28;20083;-84
2022/06/26 04:52:08;;;;;;;2.30;0.80;;;19.60;99.90;;;;;;5032425;28;20069;-83
2022/06/26 04:54:33;;;;;;;1.83;0.70;;;19.60;99.90;;;;;;5036508;28;20471;-92
2022/06/26 04:56:59;;;;;;;0.60;0.60;;;19.70;99.90;;;;;;5036283;28;20386;-84
2022/06/26 04:59:25;;;;;;;1.67;0.70;;;19.70;99.90;;;;;;5035153;28;20029;-83
2022/06/26 05:01:50;;;;;;;1.30;0.70;;;19.80;99.90;;;;;;5035782;28;20026;-83
2022/06/26 05:04:16;;;;;;;1.58;0.63;;;19.80;99.90;;;;;;5035187;28;20466;-83
2022/06/26 05:06:42;;;;;;;0.60;0.60;;;19.80;99.90;;;;;;5035674;28;20477;-86
2022/06/26 05:09:07;;;;;;;1.17;0.73;;;19.80;99.90;;;;;;5030491;28;20053;-89
2022/06/26 05:11:33;;;;;;;2.55;0.60;;;19.80;99.90;;;;;;5010765;28;20056;-80
2022/06/26 05:13:58;;;;;;;0.70;0.70;;;19.80;99.90;;;;;;4997703;28;20111;-79
2022/06/26 05:16:24;;;;;;;1.15;0.60;;;19.80;99.90;;;;;;5011286;28;20042;-77
2022/06/26 05:18:50;;;;;;;2.35;0.90;;;19.80;99.90;;;;;;5014250;28;20022;-78
2022/06/26 05:21:15;;;;;;;2.80;0.70;;;19.90;99.90;;;;;;4994183;28;20022;-79
2022/06/26 05:23:41;;;;;;;1.45;0.73;;;19.90;99.90;;;;;;4997088;28;20462;-83
2022/06/26 05:26:07;;;;;;;1.17;0.70;;;19.90;99.90;;;;;;5000711;28;20042;-79
2022/06/26 05:28:33;;;;;;;1.45;0.60;;;19.90;99.90;;;;;;4997616;28;20455;-82
2022/06/26 05:30:58;;;;;;;2.25;0.75;;;19.90;99.90;;;;;;5015457;28;20061;-81
2022/06/26 05:33:24;;;;;;;0.82;0.63;;;19.90;99.90;;;;;;4997997;28;20029;-81
2022/06/26 05:35:50;;;;;;;1.35;0.65;;;19.90;99.90;;;;;;5021820;28;20482;-79
2022/06/26 05:38:15;;;;;;;0.90;0.50;;;19.90;99.90;;;;;;5020552;28;20418;-80
2022/06/26 05:40:41;;;;;;;0.60;0.50;;;20.00;99.90;;;;;;5025013;28;20029;-80
2022/06/26 05:43:07;;;;;;;3.45;0.52;;;20.00;99.90;;;;;;4996082;28;20018;-82
2022/06/26 05:45:32;;;;;;;2.15;0.70;;;20.00;99.90;;;;;;4998069;28;20034;-83
2022/06/26 05:47:58;;;;;;;1.70;0.77;;;20.00;99.90;;;;;;4997549;28;20388;-81
2022/06/26 05:50:24;;;;;;;1.23;0.80;;;20.00;99.90;;;;;;5017641;28;20025;-81
2022/06/26 05:52:50;;;;;;;2.78;0.80;;;20.00;99.90;;;;;;5011982;28;20030;-80
2022/06/26 05:55:16;;;;;;;0.70;0.70;;;20.00;99.90;;;;;;5012865;28;20052;-84
2022/06/26 05:57:45;;;;;;;2.03;0.90;;;20.00;99.90;;;;;;5004225;28;20116;-81
2022/06/26 06:00:12;;;;;;;1.42;1.00;;;20.00;99.90;;;;;;5035005;23;20072;-80
2022/06/26 06:02:37;;;;;;;5.78;1.17;;;20.10;99.90;;;;;;5053578;28;20156;-87
2022/06/26 06:05:04;;;;;;;1.38;0.93;;;20.00;99.90;;;;;;5052429;28;20116;-78
2022/06/26 06:07:29;;;;;;;1.02;0.70;;;20.10;99.90;;;;;;5053222;28;20031;-78
2022/06/26 06:09:55;;;;;;;3.08;1.45;;;20.10;99.90;;;;;;5054035;28;20124;-80
2022/06/26 06:12:21;;;;;;;13.77;7.50;;;20.10;99.90;;;;;;5051922;28;20029;-80
2022/06/26 06:14:46;;;;;;;7.97;4.28;;;20.20;99.90;;;;;;5053282;28;20051;-79
2022/06/26 06:19:56;;;;;;;1.17;0.88;;;20.20;99.90;;;;;;5038395;28;20036;-79
2022/06/26 06:22:22;;;;;;;1.58;1.00;;;20.20;99.90;;;;;;5026951;28;20026;-79
2022/06/26 06:24:47;;;;;;;0.77;0.70;;;20.20;99.90;;;;;;5050907;28;20039;-80
2022/06/26 06:27:13;;;;;;;2.60;1.10;;;20.30;99.90;;;;;;5051899;28;20029;-83
2022/06/26 06:29:39;;;;;;;2.85;1.10;;;20.30;99.90;;;;;;5052758;28;20079;-82
2022/06/26 06:32:05;;;;;;;3.53;0.90;;;20.30;99.90;;;;;;5041521;28;20025;-90
2022/06/26 06:34:30;;;;;;;0.75;0.70;;;20.30;99.90;;;;;;5057539;28;20059;-90
2022/06/26 06:36:56;;;;;;;1.02;0.70;;;20.40;99.90;;;;;;5056732;28;20474;-90
2022/06/26 06:39:22;;;;;;;2.90;1.00;;;20.40;99.90;;;;;;5060708;28;20461;-86
2022/06/26 06:41:47;;;;;;;2.08;0.73;;;20.50;99.90;;;;;;5057880;28;20026;-95
2022/06/26 06:44:13;;;;;;;2.35;0.80;;;20.50;99.90;;;;;;5055949;28;20037;-92
2022/06/26 06:46:39;;;;;;;1.08;0.80;;;20.50;99.90;;;;;;5056849;28;20033;-89
2022/06/26 06:49:04;;;;;;;1.52;0.80;;;20.50;99.90;;;;;;5059105;28;20047;-89
2022/06/26 06:51:30;;;;;;;3.53;0.82;;;20.60;99.90;;;;;;5051890;28;20021;-88
2022/06/26 06:53:58;;;;;;;0.80;0.80;;;20.60;99.90;;;;;;5052412;28;20025;-90
2022/06/26 06:56:24;;;;;;;0.73;0.60;;;20.60;99.90;;;;;;5059629;28;20079;-92
2022/06/26 06:58:50;;;;;;;1.27;0.73;;;20.70;99.90;;;;;;5055093;28;20037;-90
2022/06/26 07:01:15;;;;;;;1.13;0.75;;;20.70;99.90;;;;;;5048143;28;20497;-92
2022/06/26 07:03:41;;;;;;;0.80;0.73;;;20.70;99.90;;;;;;5044776;28;20063;-92
2022/06/26 07:06:07;;;;;;;0.95;0.70;;;20.70;99.90;;;;;;5042038;28;20029;-85
2022/06/26 07:08:32;;;;;;;0.68;0.57;;;20.80;99.90;;;;;;5040364;28;20029;-88
2022/06/26 07:10:58;;;;;;;0.98;0.70;;;20.80;99.90;;;;;;5047970;28;20025;-87
2022/06/26 07:13:23;;;;;;;1.02;0.68;;;20.80;99.90;;;;;;5044814;28;20033;-85
2022/06/26 07:15:49;;;;;;;1.48;0.70;;;20.80;99.90;;;;;;5047724;28;20033;-86
2022/06/26 07:18:15;;;;;;;0.60;0.60;;;20.80;99.90;;;;;;5038172;28;20486;-79
2022/06/26 07:20:40;;;;;;;2.78;0.68;;;20.90;99.90;;;;;;5034954;28;20025;-81
2022/06/26 07:23:06;;;;;;;0.80;0.80;;;20.90;99.90;;;;;;5041460;28;20025;-83
2022/06/26 07:25:32;;;;;;;1.17;0.90;;;21.00;99.90;;;;;;5039375;28;20043;-86
2022/06/26 07:27:58;;;;;;;1.35;1.00;;;21.00;99.90;;;;;;5039390;28;20030;-89
2022/06/26 07:30:23;;;;;;;0.85;0.85;;;21.00;99.90;;;;;;5041959;28;20057;-82
2022/06/26 07:32:49;;;;;;;3.15;0.90;;;21.00;99.90;;;;;;5041910;28;20029;-82
2022/06/26 07:35:15;;;;;;;3.70;1.10;;;21.10;99.90;;;;;;5041238;28;20029;-83
2022/06/26 07:37:40;;;;;;;1.15;0.80;;;21.00;99.90;;;;;;5040952;28;20135;-83
2022/06/26 07:40:07;;;;;;;1.17;0.80;;;21.00;99.90;;;;;;5045949;28;20482;-83
2022/06/26 07:42:32;;;;;;;1.40;0.85;;;21.10;99.90;;;;;;5048341;28;20064;-88
2022/06/26 07:44:58;;;;;;;4.22;0.93;;;21.10;99.90;;;;;;5050757;28;20021;-93
2022/06/26 07:47:24;;;;;;;1.15;0.98;;;21.20;99.90;;;;;;5045616;28;20026;-82
2022/06/26 07:49:49;;;;;;;0.93;0.82;;;21.20;99.90;;;;;;5051917;28;20481;-83
2022/06/26 07:52:15;;;;;;;1.13;0.70;;;21.30;99.90;;;;;;5053380;28;20035;-82
2022/06/26 07:54:41;;;;;;;0.95;0.60;;;21.40;99.90;;;;;;5052936;28;20029;-82
2022/06/26 07:57:06;;;;;;;2.97;0.70;;;21.30;99.90;;;;;;5039677;28;20022;-80
2022/06/26 07:59:33;;;;;;;0.52;0.52;;;21.30;99.90;;;;;;5048748;28;20497;-87
2022/06/26 08:01:59;;;;;;;1.88;0.77;;;21.30;99.90;;;;;;5051175;28;20032;-89
2022/06/26 08:04:25;;;;;;;0.60;0.60;;;21.30;99.90;;;;;;5061348;28;20029;-90
2022/06/26 08:06:50;;;;;;;3.17;0.88;;;21.40;99.90;;;;;;5067772;28;20077;-90
2022/06/26 08:09:16;;;;;;;2.13;0.80;;;21.50;99.90;;;;;;5066405;28;20480;-89
2022/06/26 08:11:42;;;;;;;1.88;0.90;;;21.60;99.90;;;;;;5060325;28;20427;-85
2022/06/26 08:14:07;;;;;;;0.73;0.70;;;21.70;99.90;;;;;;5062149;28;20082;-89
2022/06/26 08:16:33;;;;;;;1.58;0.60;;;21.70;99.90;;;;;;5057140;28;20036;-88
2022/06/26 08:18:59;;;;;;;1.80;0.80;;;21.70;99.90;;;;;;5040644;28;20017;-89
2022/06/26 08:24:08;;;;;;;1.50;1.40;;;21.80;99.90;;;;;;5056428;28;20504;-89
2022/06/26 08:26:34;;;;;;;1.92;1.17;;;22.00;99.90;;;;;;5062459;28;20029;-89
2022/06/26 08:28:59;;;;;;;1.17;0.82;;;22.10;99.90;;;;;;5071801;28;20072;-90
2022/06/26 08:31:25;;;;;;;1.70;0.82;;;22.20;99.90;;;;;;5064390;28;20023;-90
2022/06/26 08:33:51;;;;;;;1.80;0.93;;;22.10;99.90;;;;;;5062458;28;20025;-89
2022/06/26 08:36:16;;;;;;;3.97;0.80;;;22.10;99.90;;;;;;5064199;28;20461;-90
2022/06/26 08:38:43;;;;;;;2.10;1.00;;;22.10;99.90;;;;;;5065964;28;20524;-90
2022/06/26 08:41:09;;;;;;;1.83;1.00;;;22.10;99.90;;;;;;5064691;28;20078;-90
2022/06/26 08:43:38;;;;;;;2.17;0.80;;;22.10;99.90;;;;;;5067174;28;20457;-89
2022/06/26 08:46:04;;;;;;;1.33;0.80;;;22.10;99.90;;;;;;5068013;28;20046;-90
2022/06/26 08:48:40;;;;;;;0.95;0.82;;;22.10;99.90;;;;;;5062987;28;20037;-89
2022/06/26 08:51:07;;;;;;;2.50;0.80;;;22.10;99.90;;;;;;5065070;28;20140;-89
2022/06/26 08:53:34;;;;;;;1.67;0.80;;;22.10;99.90;;;;;;5061328;28;20108;-90
2022/06/26 08:56:01;;;;;;;3.42;0.80;;;22.10;99.90;;;;;;5061567;28;20036;-90
2022/06/26 08:58:27;;;;;;;1.58;1.10;;;22.20;99.90;;;;;;5069129;28;20032;-90
2022/06/26 09:00:53;;;;;;;1.55;0.70;;;22.30;99.90;;;;;;5065392;28;20051;-90
2022/06/26 09:03:18;;;;;;;1.00;0.82;;;22.30;99.90;;;;;;5063798;28;20035;-89
2022/06/26 09:05:44;;;;;;;1.38;0.60;;;22.40;99.90;;;;;;5043892;28;20021;-89
2022/06/26 09:08:20;;;;;;;1.70;0.85;;;22.40;99.90;;;;;;5062118;28;20041;-89
2022/06/26 09:10:48;;;;;;;3.22;0.80;;;22.40;99.90;;;;;;5063843;28;20027;-89
2022/06/26 09:13:14;;;;;;;1.88;0.73;;;22.50;99.90;;;;;;5064180;28;20032;-90
2022/06/26 09:15:41;;;;;;;2.60;0.80;;;22.50;99.90;;;;;;5061999;28;20039;-90
2022/06/26 09:18:09;;;;;;;0.60;0.60;;;22.60;99.90;;;;;;5059345;28;20080;-90
2022/06/26 09:20:36;;;;;;;0.50;0.47;;;22.80;99.90;;;;;;5062118;28;20056;-89
2022/06/26 09:23:03;;;;;;;1.63;0.60;;;22.90;99.90;;;;;;5066188;28;20458;-89
2022/06/26 09:25:37;;;;;;;4.03;0.80;;;23.00;99.90;;;;;;5065367;28;20029;-90
2022/06/26 09:28:17;;;;;;;0.95;0.75;;;23.10;99.90;;;;;;5062257;28;20123;-89
2022/06/26 09:30:57;;;;;;;0.50;0.50;;;23.20;99.90;;;;;;5062354;28;20024;-90
2022/06/26 09:33:32;;;;;;;2.17;0.70;;;23.30;99.90;;;;;;5064052;28;20057;-90
2022/06/26 09:35:59;;;;;;;2.85;1.70;;;23.40;99.90;;;;;;5067211;28;20029;-90
2022/06/26 09:38:34;;;;;;;2.92;1.40;;;23.50;99.90;;;;;;5068058;28;20457;-90
2022/06/26 09:41:03;;;;;;;0.85;0.60;;;23.60;99.90;;;;;;5060719;28;20202;-90
2022/06/26 09:43:40;;;;;;;1.77;0.80;;;23.80;99.90;;;;;;5065678;28;20029;-90
2022/06/26 09:46:11;;;;;;;4.75;1.27;;;23.80;99.90;;;;;;5067075;28;20035;-90
2022/06/26 09:48:38;;;;;;;1.50;1.00;;;24.00;99.90;;;;;;5064379;28;20033;-90
2022/06/26 09:51:10;;;;;;;1.50;0.80;;;24.10;99.60;;;;;;5063792;28;20036;-90
2022/06/26 09:53:37;;;;;;;2.70;0.70;;;24.10;99.40;;;;;;5059829;28;20378;-90
2022/06/26 09:56:05;;;;;;;1.63;0.50;;;24.30;99.40;;;;;;5057102;28;20033;-90
2022/06/26 09:58:31;;;;;;;0.60;0.60;;;24.40;99.20;;;;;;5046008;28;20162;-90
2022/06/26 10:06:30;;;;;;;1.13;0.60;;;24.60;97.50;;;;;;5067109;28;20117;-90
2022/06/26 10:09:00;;;;;;;2.33;0.70;;;24.60;97.30;;;;;;5059592;28;20121;-90
2022/06/26 10:11:29;;;;;;;1.05;0.60;;;24.70;97.20;;;;;;5063492;28;20079;-90
2022/06/26 10:14:07;;;;;;;1.05;0.70;;;24.70;96.90;;;;;;5066411;28;20040;-90
2022/06/26 10:16:42;;;;;;;0.90;0.57;;;24.70;96.90;;;;;;5066319;28;20048;-88
2022/06/26 10:19:34;;;;;;;1.48;0.60;;;24.70;96.00;;;;;;5067624;28;20044;-91
2022/06/26 10:22:00;;;;;;;0.75;0.60;;;24.70;95.70;;;;;;5039745;28;20048;-90
2022/06/26 10:24:26;;;;;;;1.15;0.70;;;24.80;96.00;;;;;;5056515;28;20033;-90
2022/06/26 10:26:57;;;;;;;3.20;0.80;;;24.80;96.50;;;;;;5063621;28;20607;-90
2022/06/26 10:30:03;;;;;;;0.52;0.50;;;24.80;96.60;;;;;;5060938;28;20032;-91
2022/06/26 10:32:28;;;;;;;2.22;0.60;;;24.80;96.40;;;;;;5048222;28;20032;-90
2022/06/26 10:34:56;;;;;;;0.60;0.52;;;24.90;96.40;;;;;;5059142;28;20026;-90
2022/06/26 10:37:21;;;;;;;0.93;0.65;;;24.90;96.60;;;;;;5070938;28;20048;-90
2022/06/26 10:39:51;;;;;;;1.58;0.50;;;25.00;96.60;;;;;;5049180;28;20067;-89
2022/06/26 10:45:23;;;;;;;1.83;0.70;;;25.20;96.60;;;;;;5049698;28;20127;-89
2022/06/26 10:47:52;;;;;;;0.73;0.70;;;25.20;95.70;;;;;;5065503;28;20074;-90
2022/06/26 10:50:39;;;;;;;0.50;0.50;;;25.10;95.80;;;;;;5058298;28;20052;-89
2022/06/26 10:53:22;;;;;;;0.70;0.70;;;25.20;96.20;;;;;;5058940;28;20470;-90
2022/06/26 10:55:52;;;;;;;2.35;0.70;;;25.20;95.80;;;;;;5050078;28;20025;-89
2022/06/26 10:58:21;;;;;;;0.70;0.63;;;25.10;95.80;;;;;;5058638;28;20029;-89
2022/06/26 11:00:48;;;;;;;0.95;0.65;;;25.20;96.10;;;;;;5062053;28;20041;-90
2022/06/26 11:03:16;;;;;;;0.60;0.60;;;25.20;96.30;;;;;;5056785;28;20032;-89
2022/06/26 11:06:03;;;;;;;0.98;0.60;;;25.30;96.30;;;;;;5065493;28;20079;-89
2022/06/26 11:08:34;;;;;;;0.85;0.65;;;25.40;96.40;;;;;;5064751;28;20035;-90
2022/06/26 11:11:09;;;;;;;1.00;0.60;;;25.50;96.30;;;;;;5058992;28;20033;-89
2022/06/26 11:13:47;;;;;;;0.70;0.70;;;25.50;95.70;;;;;;5064735;28;20108;-90
2022/06/26 11:16:15;;;;;;;1.17;0.60;;;25.70;96.20;;;;;;5066572;28;20039;-90
2022/06/26 11:18:41;;;;;;;0.50;0.50;;;25.60;94.90;;;;;;5066883;28;20095;-89
2022/06/26 11:21:07;;;;;;;0.50;0.50;;;25.60;95.10;;;;;;5060246;28;20052;-90
2022/06/26 11:23:35;;;;;;;0.43;0.40;;;25.60;95.00;;;;;;5065170;28;20502;-88
2022/06/26 11:26:06;;;;;;;0.60;0.60;;;25.70;94.90;;;;;;5066366;28;20039;-90
2022/06/26 11:28:39;;;;;;;;;;;25.70;94.50;;;;;;5058415;28;20095;-90
2022/06/26 11:31:11;;;;;;;1.35;0.50;;;25.80;94.20;;;;;;5062422;28;20475;-90
2022/06/26 11:33:37;;;;;;;;;;;25.80;94.70;;;;;;5055130;28;20028;-90
2022/06/26 11:36:09;;;;;;;0.75;0.52;;;25.90;94.00;;;;;;5055779;28;19908;-89
2022/06/26 11:38:35;;;;;;;0.70;0.70;;;25.80;94.00;;;;;;5057661;28;20104;-90
2022/06/26 11:41:08;;;;;;;0.55;0.50;;;25.90;93.80;;;;;;5062002;28;20033;-90
2022/06/26 11:43:43;;;;;;;0.65;0.60;;;25.90;94.00;;;;;;5058431;28;20040;-88
2022/06/26 11:46:09;;;;;;;1.13;0.70;;;25.80;93.70;;;;;;5055113;28;20049;-90
2022/06/26 11:48:34;;;;;;;1.05;0.60;;;25.80;93.50;;;;;;5061823;28;20029;-89
2022/06/26 11:51:00;;;;;;;0.45;0.45;;;25.80;93.30;;;;;;5062019;28;20032;-90
2022/06/26 11:53:31;;;;;;;0.95;0.68;;;25.90;93.10;;;;;;5060997;28;20060;-90
2022/06/26 11:55:59;;;;;;;0.60;0.45;;;25.90;93.00;;;;;;5059194;28;20032;-90
2022/06/26 11:58:29;;;;;;;0.50;0.50;;;26.10;92.90;;;;;;5058386;28;20037;-89
2022/06/26 12:01:09;;;;;;;0.90;0.52;;;26.20;92.80;;;;;;5061155;28;20044;-90
2022/06/26 12:03:56;;;;;;;0.95;0.60;;;26.30;93.00;;;;;;5058245;28;20017;-89
2022/06/26 12:06:40;;;;;;;0.80;0.50;;;26.40;93.30;;;;;;5054850;28;20041;-90
2022/06/26 12:09:23;;;;;;;1.70;0.50;;;26.40;92.20;;;;;;5042106;28;20022;-90
2022/06/26 12:11:51;;;;;;;1.88;0.50;;;26.60;92.20;;;;;;5049641;28;20021;-90
2022/06/26 12:14:19;;;;;;;2.55;0.75;;;26.80;91.40;;;;;;5055156;28;20061;-90
2022/06/26 12:16:49;;;;;;;1.08;0.50;;;26.90;91.10;;;;;;5060599;28;20473;-91
2022/06/26 12:19:15;;;;;;;1.38;0.60;;;27.00;90.70;;;;;;5069490;28;20465;-91
2022/06/26 12:21:43;;;;;;;1.15;0.40;;;27.20;90.70;;;;;;5058306;28;20029;-89
2022/06/26 12:24:14;;;;;;;0.40;0.40;;;27.20;89.10;;;;;;5058529;28;20049;-91
2022/06/26 12:26:41;;;;;;;0.60;0.40;;;27.30;88.60;;;;;;5062512;28;20482;-90
2022/06/26 12:29:11;;;;;;;0.50;0.40;;;27.20;88.30;;;;;;5065439;28;20032;-90
2022/06/26 12:31:38;;;;;;;0.73;0.40;;;27.10;88.10;;;;;;5057848;28;20021;-90
2022/06/26 12:34:04;;;;;;;0.57;0.40;;;27.20;87.60;;;;;;5058692;28;20075;-90
2022/06/26 12:36:31;;;;;;;0.63;0.63;;;27.30;87.50;;;;;;5061077;28;20128;-89
2022/06/26 12:38:57;;;;;;;0.85;0.50;;;27.30;88.50;;;;;;5061885;28;20098;-90
2022/06/26 12:41:23;;;;;;;0.57;0.50;;;27.30;87.60;;;;;;5050120;28;20055;-91
2022/06/26 12:43:52;;;;;;;1.58;0.52;;;27.40;87.80;;;;;;5059733;28;20025;-90
2022/06/26 12:46:18;;;;;;;0.75;0.63;;;27.50;86.70;;;;;;5064182;28;20043;-91
2022/06/26 12:48:44;;;;;;;1.13;0.70;;;27.50;87.80;;;;;;5056234;28;20028;-91
2022/06/26 12:51:10;;;;;;;2.30;0.57;;;27.50;87.00;;;;;;5056462;28;20112;-90
2022/06/26 12:53:37;;;;;;;1.27;0.40;;;27.50;86.70;;;;;;5055492;28;20029;-88
2022/06/26 12:56:03;;;;;;;0.93;0.40;;;27.30;85.40;;;;;;5056652;28;20025;-90
2022/06/26 12:58:29;;;;;;;0.52;0.47;;;27.30;84.90;;;;;;5054835;28;20367;-91
2022/06/26 13:00:54;;;;;;;0.65;0.38;;;27.30;84.00;;;;;;5065411;28;20045;-90
2022/06/26 13:03:21;;;;;;;0.65;0.38;;;27.50;84.00;;;;;;5064419;28;20105;-90
2022/06/26 13:05:47;;;;;;;0.95;0.60;;;27.60;83.80;;;;;;5049491;28;20028;-90
2022/06/26 13:08:14;;;;;;;1.02;0.60;;;27.60;83.60;;;;;;5069057;28;20028;-90